VAM | FAF

Virtual Airlines Manager! Gestion de la flotte et des vols FAFZone VA FrenchAirForce A new look to your va. By: Jonatha Silva




 METAR ET TAF INFORMATION
METAR FOR KBML
ADDS - METARS form results

(0845 UTC 25 September 2022)
Data provider http://aviationweather.gov/metar/data/
 
METAR text: KBML 250835Z AUTO 00000KT 3SM BR BKN001 01/00 A2980 RMK AO2 T00110000
Conditions at: KBML (BERLIN , NH, US) observed 0835 UTC 25 September 2022
Temperature: 1.1°C (34°F)
Dewpoint: 0.0°C (32°F) [RH = 92%]
Pressure (altimeter): 29.80 inches Hg (1009.2 mb)
Winds: calm
Visibility: 3 miles ( 5 km)
Ceiling: 100 feet AGL
Clouds: broken clouds at 100 feet AGL
Weather: BR  (mist)

METAR text: KBML 250833Z AUTO 00000KT 1 3/4SM BR BKN001 01/00 A2980 RMK AO2 T00110000
Conditions at: KBML (BERLIN , NH, US) observed 0833 UTC 25 September 2022
Temperature: 1.1°C (34°F)
Dewpoint: 0.0°C (32°F) [RH = 92%]
Pressure (altimeter): 29.80 inches Hg (1009.2 mb)
Winds: calm
Visibility: 1.75 miles (2.82 km)
Ceiling: 100 feet AGL
Clouds: broken clouds at 100 feet AGL
Weather: BR  (mist)

METAR text: KBML 250818Z AUTO 00000KT 1/2SM FG VV001 01/00 A2980 RMK AO2 T00110000
Conditions at: KBML (BERLIN , NH, US) observed 0818 UTC 25 September 2022
Temperature: 1.1°C (34°F)
Dewpoint: 0.0°C (32°F) [RH = 92%]
Pressure (altimeter): 29.80 inches Hg (1009.2 mb)
Winds: calm
Visibility: 0.50 miles (0.80 km)
Ceiling: indefinite ceiling with vertical visibility of 100 feet AGL
Clouds: obscured sky
Weather: FG  (fog)

METAR text: KBML 250801Z AUTO 00000KT 1/4SM FG VV001 01/01 A2980 RMK AO2 T00110006
Conditions at: KBML (BERLIN , NH, US) observed 0801 UTC 25 September 2022
Temperature: 1.1°C (34°F)
Dewpoint: 0.6°C (33°F) [RH = 96%]
Pressure (altimeter): 29.80 inches Hg (1009.2 mb)
Winds: calm
Visibility: 0.25 miles (0.40 km)
Ceiling: indefinite ceiling with vertical visibility of 100 feet AGL
Clouds: obscured sky
Weather: FG  (fog)

METAR text: KBML 250752Z AUTO 00000KT 3/4SM BR VV001 01/01 A2980 RMK AO2 SLP096 T00110006
Conditions at: KBML (BERLIN , NH, US) observed 0752 UTC 25 September 2022
Temperature: 1.1°C (34°F)
Dewpoint: 0.6°C (33°F) [RH = 96%]
Pressure (altimeter): 29.80 inches Hg (1009.2 mb)
[Sea-level pressure: 1009.6 mb]
Winds: calm
Visibility: 0.75 miles (1.21 km)
Ceiling: indefinite ceiling with vertical visibility of 100 feet AGL
Clouds: obscured sky
Weather: BR  (mist)

METAR text: KBML 250748Z AUTO 00000KT 1 1/2SM BR OVC001 01/01 A2980 RMK AO2 VIS 3/4V5
Conditions at: KBML (BERLIN , NH, US) observed 0748 UTC 25 September 2022
Temperature: 1.0°C (34°F)
Dewpoint: 1.0°C (34°F) [RH = 100%]
Pressure (altimeter): 29.80 inches Hg (1009.2 mb)
Winds: calm
Visibility: 1.50 miles (2.41 km)
Ceiling: 100 feet AGL
Clouds: overcast cloud deck at 100 feet AGL
Weather: BR  (mist)

 AÉROPORT DE AÉROPORT

 INFORMATIONS DE PISTE
Piste 18 Longueur de la piste 5200 ft Largeur de la piste 100 ft
Élévation de la piste 1158 ft Seuil de la piste déplacés 0 ft Runway heading 164
Piste 36 Longueur de la piste 5200 ft Largeur de la piste 100 ft
Élévation de la piste 1130 ft Seuil de la piste déplacés 0 ft Runway heading 344

 AÉROPORT FRÉQUENCES
Type ASOS Nom ASOS Féquence 135.175 MHZ
Type RDO Nom BANGOR RDO Féquence 122.35 MHZ
Type UNIC Nom CTAF/UNICO Féquence 122.7 MHZ

 SIDA DE NAVIGATION